Riverton, Minnesota
Current Conditions -  °F | °C
As of 6:53 AM on Friday 19 Dec 2014 (Local Time) from KBRD Reporting Station
Haze Haze  
Wind Chill: 12°   Ceiling: 1200
Heat Index: 20°   Visibility: 5mi
Dew Point: 16°   Wind: 6mph
Humidity: 85%   Direction: 150°SSE
Pressure: 30.18"   Gusts: NA
Location:  46.4711°N, 94.0264°W
Report Text: KBRD 191253Z AUTO 15005KT 5SM BR OVC012 M07/M09 A3018 RMK AO2 SLP243 T10671089
Loading
Personal Weather Stations






























Interactive Weather Map New forecast layout! Learn more

10-Day Weather Forecast

Advertisements
Track Severe Weather on mobile